N960DH CYQB-CYVO
Flight info
| Callsign | N960DH |
|---|---|
| Flight time | 1h 9m |
| Altitude | 28000 |
| Route | IMORI DCT UDBAM DCT DICEN DCT BERUT |
| Aircraft | TBM8/L-SDFGRWY/S |
Departure
| Time | 2026-05-08 21:18 |
|---|---|
| Airport | Quebec Jean Lesage International Airport (CYQB) |
Arrival
| Time | 2026-05-08 22:27 |
|---|---|
| Airport | Val-d'Or Airport (CYVO) |
| Time | Latitude | Longitude | Altitude | Speed | Heading |
|---|---|---|---|---|---|
| 2026-05-08 21:08 | 46.78883 | -71.37868 | 248 ft | 0 kts | 129° |
| 2026-05-08 21:14 | 46.78881 | -71.37859 | 248 ft | 3 kts | 83° |
| 2026-05-08 21:14 | 46.78912 | -71.37916 | 248 ft | 8 kts | 321° |
| 2026-05-08 21:15 | 46.78916 | -71.37994 | 248 ft | 10 kts | 273° |
| 2026-05-08 21:15 | 46.78862 | -71.38095 | 248 ft | 11 kts | 187° |
| 2026-05-08 21:15 | 46.78815 | -71.38104 | 248 ft | 7 kts | 185° |
| 2026-05-08 21:15 | 46.78813 | -71.38104 | 248 ft | 0 kts | 184° |
| 2026-05-08 21:16 | 46.78798 | -71.38106 | 248 ft | 4 kts | 190° |
| 2026-05-08 21:16 | 46.78795 | -71.38107 | 248 ft | 2 kts | 189° |
| 2026-05-08 21:17 | 46.78724 | -71.38132 | 248 ft | 22 kts | 234° |
| 2026-05-08 21:17 | 46.78753 | -71.38603 | 248 ft | 74 kts | 278° |
| 2026-05-08 21:17 | 46.78834 | -71.39416 | 422 ft | 98 kts | 271° |
| 2026-05-08 21:17 | 46.78886 | -71.40549 | 742 ft | 112 kts | 257° |
| 2026-05-08 21:18 | 46.78402 | -71.41539 | 1022 ft | 133 kts | 231° |
| 2026-05-08 21:18 | 46.77932 | -71.42670 | 1651 ft | 127 kts | 243° |
| 2026-05-08 21:18 | 46.77513 | -71.43853 | 2166 ft | 133 kts | 239° |
| 2026-05-08 21:18 | 46.77048 | -71.44999 | 2741 ft | 131 kts | 241° |
| 2026-05-08 21:19 | 46.76609 | -71.46166 | 3248 ft | 133 kts | 242° |
| 2026-05-08 21:19 | 46.76152 | -71.47358 | 3784 ft | 136 kts | 242° |
| 2026-05-08 21:19 | 46.75698 | -71.48558 | 4381 ft | 134 kts | 243° |
| 2026-05-08 21:19 | 46.75255 | -71.49751 | 4958 ft | 133 kts | 243° |
| 2026-05-08 21:20 | 46.74808 | -71.50958 | 5458 ft | 137 kts | 243° |
| 2026-05-08 21:20 | 46.74357 | -71.52180 | 6017 ft | 136 kts | 243° |
| 2026-05-08 21:20 | 46.73906 | -71.53400 | 6533 ft | 139 kts | 243° |
| 2026-05-08 21:20 | 46.73446 | -71.54646 | 7056 ft | 139 kts | 243° |
| 2026-05-08 21:21 | 46.72987 | -71.55887 | 7558 ft | 141 kts | 243° |
| 2026-05-08 21:21 | 46.72517 | -71.57160 | 8031 ft | 143 kts | 243° |
| 2026-05-08 21:21 | 46.72044 | -71.58435 | 8554 ft | 143 kts | 243° |
| 2026-05-08 21:21 | 46.71563 | -71.59721 | 9048 ft | 146 kts | 243° |
| 2026-05-08 21:22 | 46.71075 | -71.61036 | 9529 ft | 149 kts | 243° |
| 2026-05-08 21:22 | 46.70655 | -71.62406 | 10025 ft | 147 kts | 258° |
| 2026-05-08 21:22 | 46.70702 | -71.63884 | 10442 ft | 152 kts | 285° |
| 2026-05-08 21:22 | 46.70984 | -71.65397 | 10834 ft | 157 kts | 280° |
| 2026-05-08 21:23 | 46.71191 | -71.66988 | 11227 ft | 162 kts | 279° |
| 2026-05-08 21:23 | 46.71405 | -71.68628 | 11624 ft | 167 kts | 279° |
| 2026-05-08 21:23 | 46.71633 | -71.70312 | 12028 ft | 172 kts | 280° |
| 2026-05-08 21:23 | 46.71871 | -71.72012 | 12443 ft | 175 kts | 280° |
| 2026-05-08 21:24 | 46.72124 | -71.73765 | 12858 ft | 178 kts | 281° |
| 2026-05-08 21:24 | 46.72383 | -71.75547 | 13279 ft | 181 kts | 281° |
| 2026-05-08 21:24 | 46.72645 | -71.77351 | 13687 ft | 183 kts | 281° |
| 2026-05-08 21:24 | 46.72909 | -71.79183 | 14058 ft | 186 kts | 281° |
| 2026-05-08 21:25 | 46.73174 | -71.81034 | 14426 ft | 188 kts | 281° |
| 2026-05-08 21:25 | 46.73446 | -71.82903 | 14815 ft | 189 kts | 281° |
| 2026-05-08 21:25 | 46.73719 | -71.84787 | 15207 ft | 191 kts | 280° |
| 2026-05-08 21:25 | 46.73993 | -71.86682 | 15590 ft | 192 kts | 280° |
| 2026-05-08 21:26 | 46.74268 | -71.88586 | 15987 ft | 192 kts | 280° |
| 2026-05-08 21:26 | 46.74543 | -71.90494 | 16387 ft | 193 kts | 280° |
| 2026-05-08 21:26 | 46.74817 | -71.92407 | 16791 ft | 193 kts | 280° |
| 2026-05-08 21:26 | 46.75092 | -71.94318 | 17199 ft | 193 kts | 280° |
| 2026-05-08 21:27 | 46.75366 | -71.96224 | 17616 ft | 192 kts | 280° |
| 2026-05-08 21:27 | 46.75639 | -71.98128 | 18038 ft | 192 kts | 279° |
| 2026-05-08 21:27 | 46.75911 | -72.00028 | 18413 ft | 191 kts | 279° |
| 2026-05-08 21:27 | 46.76179 | -72.01918 | 18781 ft | 190 kts | 279° |
| 2026-05-08 21:28 | 46.76448 | -72.03802 | 19149 ft | 189 kts | 279° |
| 2026-05-08 21:28 | 46.76713 | -72.05669 | 19520 ft | 188 kts | 279° |
| 2026-05-08 21:28 | 46.76977 | -72.07531 | 19896 ft | 186 kts | 279° |
| 2026-05-08 21:28 | 46.77236 | -72.09376 | 20289 ft | 185 kts | 279° |
| 2026-05-08 21:29 | 46.77494 | -72.11204 | 20683 ft | 183 kts | 279° |
| 2026-05-08 21:29 | 46.77748 | -72.13015 | 21084 ft | 181 kts | 279° |
| 2026-05-08 21:29 | 46.77993 | -72.14808 | 21489 ft | 179 kts | 279° |
| 2026-05-08 21:29 | 46.78241 | -72.16617 | 21731 ft | 185 kts | 279° |
| 2026-05-08 21:30 | 46.78502 | -72.18488 | 21957 ft | 191 kts | 279° |
| 2026-05-08 21:30 | 46.78774 | -72.20417 | 22181 ft | 197 kts | 279° |
| 2026-05-08 21:30 | 46.79053 | -72.22392 | 22435 ft | 201 kts | 279° |
| 2026-05-08 21:30 | 46.79335 | -72.24405 | 22718 ft | 203 kts | 279° |
| 2026-05-08 21:31 | 46.79619 | -72.26436 | 23008 ft | 205 kts | 279° |
| 2026-05-08 21:31 | 46.80006 | -72.28448 | 23287 ft | 208 kts | 291° |
| 2026-05-08 21:31 | 46.80867 | -72.30169 | 23538 ft | 216 kts | 315° |
| 2026-05-08 21:31 | 46.82050 | -72.31549 | 23780 ft | 217 kts | 313° |
| 2026-05-08 21:32 | 46.83116 | -72.33103 | 24030 ft | 216 kts | 308° |
| 2026-05-08 21:32 | 46.84135 | -72.34718 | 24275 ft | 217 kts | 308° |
| 2026-05-08 21:32 | 46.85157 | -72.36337 | 24522 ft | 217 kts | 308° |
| 2026-05-08 21:32 | 46.86196 | -72.37948 | 24774 ft | 218 kts | 308° |
| 2026-05-08 21:33 | 46.87246 | -72.39546 | 25025 ft | 218 kts | 309° |
| 2026-05-08 21:33 | 46.88296 | -72.41121 | 25241 ft | 220 kts | 309° |
| 2026-05-08 21:33 | 46.89375 | -72.42726 | 25453 ft | 222 kts | 309° |
| 2026-05-08 21:33 | 46.90466 | -72.44339 | 25666 ft | 224 kts | 309° |
| 2026-05-08 21:34 | 46.91568 | -72.45964 | 25871 ft | 226 kts | 310° |
| 2026-05-08 21:34 | 46.92676 | -72.47600 | 26079 ft | 227 kts | 309° |
| 2026-05-08 21:34 | 46.93581 | -72.49448 | 26289 ft | 222 kts | 291° |
| 2026-05-08 21:34 | 46.94112 | -72.51563 | 26507 ft | 222 kts | 285° |
| 2026-05-08 21:35 | 46.94579 | -72.53713 | 26721 ft | 222 kts | 285° |
| 2026-05-08 21:35 | 46.95035 | -72.55873 | 26945 ft | 222 kts | 285° |
| 2026-05-08 21:35 | 46.95492 | -72.58053 | 27094 ft | 226 kts | 285° |
| 2026-05-08 21:35 | 46.95956 | -72.60264 | 27229 ft | 229 kts | 285° |
| 2026-05-08 21:36 | 46.96430 | -72.62500 | 27365 ft | 231 kts | 285° |
| 2026-05-08 21:36 | 46.96905 | -72.64756 | 27493 ft | 233 kts | 285° |
| 2026-05-08 21:36 | 46.97384 | -72.67030 | 27623 ft | 235 kts | 285° |
| 2026-05-08 21:36 | 46.97881 | -72.69315 | 27766 ft | 236 kts | 285° |
| 2026-05-08 21:37 | 46.98381 | -72.71626 | 27831 ft | 241 kts | 285° |
| 2026-05-08 21:37 | 46.98890 | -72.73997 | 27838 ft | 246 kts | 285° |
| 2026-05-08 21:37 | 46.99408 | -72.76410 | 27843 ft | 251 kts | 285° |
| 2026-05-08 21:37 | 46.99933 | -72.78866 | 27845 ft | 255 kts | 285° |
| 2026-05-08 21:38 | 47.00467 | -72.81364 | 27847 ft | 259 kts | 285° |
| 2026-05-08 21:38 | 47.01008 | -72.83896 | 27848 ft | 262 kts | 285° |
| 2026-05-08 21:38 | 47.01554 | -72.86455 | 27846 ft | 265 kts | 285° |
| 2026-05-08 21:38 | 47.02105 | -72.89044 | 27849 ft | 267 kts | 285° |
| 2026-05-08 21:39 | 47.02661 | -72.91652 | 27850 ft | 269 kts | 285° |
| 2026-05-08 21:39 | 47.03220 | -72.94278 | 27849 ft | 271 kts | 285° |
| 2026-05-08 21:39 | 47.03782 | -72.96923 | 27844 ft | 272 kts | 285° |
| 2026-05-08 21:39 | 47.04345 | -72.99581 | 27849 ft | 274 kts | 285° |
| 2026-05-08 21:40 | 47.04909 | -73.02245 | 27844 ft | 274 kts | 285° |
| 2026-05-08 21:40 | 47.05469 | -73.04891 | 27844 ft | 275 kts | 285° |
| 2026-05-08 21:40 | 47.06035 | -73.07574 | 27848 ft | 276 kts | 285° |
| 2026-05-08 21:41 | 47.07168 | -73.12954 | 27841 ft | 277 kts | 285° |
| 2026-05-08 21:41 | 47.07735 | -73.15654 | 27846 ft | 277 kts | 285° |
| 2026-05-08 21:41 | 47.08302 | -73.18356 | 27847 ft | 277 kts | 285° |
| 2026-05-08 21:41 | 47.08868 | -73.21061 | 27850 ft | 278 kts | 285° |
| 2026-05-08 21:42 | 47.09435 | -73.23769 | 27846 ft | 278 kts | 285° |
| 2026-05-08 21:42 | 47.10003 | -73.26482 | 27848 ft | 278 kts | 285° |
| 2026-05-08 21:42 | 47.10568 | -73.29195 | 27851 ft | 278 kts | 285° |
| 2026-05-08 21:42 | 47.11136 | -73.31918 | 27841 ft | 279 kts | 285° |
| 2026-05-08 21:43 | 47.11700 | -73.34632 | 27838 ft | 278 kts | 285° |
| 2026-05-08 21:43 | 47.12265 | -73.37350 | 27841 ft | 278 kts | 285° |
| 2026-05-08 21:43 | 47.12828 | -73.40061 | 27840 ft | 278 kts | 285° |
| 2026-05-08 21:43 | 47.13391 | -73.42777 | 27839 ft | 278 kts | 285° |
| 2026-05-08 21:44 | 47.13951 | -73.45486 | 27840 ft | 277 kts | 285° |
| 2026-05-08 21:44 | 47.14511 | -73.48194 | 27838 ft | 277 kts | 285° |
| 2026-05-08 21:44 | 47.15071 | -73.50906 | 27837 ft | 277 kts | 285° |
| 2026-05-08 21:44 | 47.15629 | -73.53614 | 27843 ft | 277 kts | 285° |
| 2026-05-08 21:45 | 47.16187 | -73.56328 | 27842 ft | 277 kts | 285° |
| 2026-05-08 21:45 | 47.16745 | -73.59039 | 27836 ft | 277 kts | 285° |
| 2026-05-08 21:45 | 47.17301 | -73.61750 | 27835 ft | 277 kts | 285° |
| 2026-05-08 21:45 | 47.17855 | -73.64451 | 27837 ft | 277 kts | 285° |
| 2026-05-08 21:46 | 47.18411 | -73.67166 | 27836 ft | 277 kts | 285° |
| 2026-05-08 21:46 | 47.18966 | -73.69882 | 27834 ft | 277 kts | 285° |
| 2026-05-08 21:46 | 47.19518 | -73.72589 | 27842 ft | 277 kts | 285° |
| 2026-05-08 21:46 | 47.20071 | -73.75300 | 27842 ft | 276 kts | 285° |
| 2026-05-08 21:47 | 47.20622 | -73.78007 | 27838 ft | 276 kts | 285° |
| 2026-05-08 21:47 | 47.21172 | -73.80712 | 27838 ft | 276 kts | 285° |
| 2026-05-08 21:47 | 47.21721 | -73.83418 | 27837 ft | 276 kts | 285° |
| 2026-05-08 21:47 | 47.22268 | -73.86119 | 27837 ft | 276 kts | 285° |
| 2026-05-08 21:48 | 47.22816 | -73.88824 | 27836 ft | 276 kts | 285° |
| 2026-05-08 21:48 | 47.23363 | -73.91529 | 27837 ft | 276 kts | 285° |
| 2026-05-08 21:48 | 47.23908 | -73.94229 | 27836 ft | 275 kts | 285° |
| 2026-05-08 21:48 | 47.24453 | -73.96932 | 27829 ft | 275 kts | 285° |
| 2026-05-08 21:49 | 47.24996 | -73.99632 | 27830 ft | 275 kts | 285° |
| 2026-05-08 21:49 | 47.25540 | -74.02336 | 27829 ft | 275 kts | 285° |
| 2026-05-08 21:49 | 47.26074 | -74.04999 | 27829 ft | 275 kts | 285° |
| 2026-05-08 21:49 | 47.26615 | -74.07697 | 27830 ft | 275 kts | 285° |
| 2026-05-08 21:50 | 47.27154 | -74.10394 | 27836 ft | 275 kts | 285° |
| 2026-05-08 21:50 | 47.27694 | -74.13093 | 27829 ft | 275 kts | 285° |
| 2026-05-08 21:50 | 47.28233 | -74.15792 | 27831 ft | 274 kts | 285° |
| 2026-05-08 21:50 | 47.28770 | -74.18487 | 27830 ft | 274 kts | 285° |
| 2026-05-08 21:51 | 47.29306 | -74.21181 | 27832 ft | 274 kts | 285° |
| 2026-05-08 21:51 | 47.29841 | -74.23875 | 27828 ft | 274 kts | 285° |
| 2026-05-08 21:51 | 47.30377 | -74.26570 | 27828 ft | 274 kts | 285° |
| 2026-05-08 21:51 | 47.30910 | -74.29258 | 27826 ft | 274 kts | 285° |
| 2026-05-08 21:52 | 47.31443 | -74.31950 | 27830 ft | 274 kts | 285° |
| 2026-05-08 21:52 | 47.31975 | -74.34642 | 27831 ft | 273 kts | 285° |
| 2026-05-08 21:52 | 47.32506 | -74.37331 | 27831 ft | 273 kts | 285° |
| 2026-05-08 21:52 | 47.33036 | -74.40019 | 27832 ft | 273 kts | 285° |
| 2026-05-08 21:53 | 47.33566 | -74.42709 | 27827 ft | 273 kts | 285° |
| 2026-05-08 21:53 | 47.34096 | -74.45405 | 27833 ft | 273 kts | 285° |
| 2026-05-08 21:53 | 47.34624 | -74.48094 | 27836 ft | 273 kts | 285° |
| 2026-05-08 21:53 | 47.35152 | -74.50780 | 27834 ft | 273 kts | 285° |
| 2026-05-08 21:54 | 47.35677 | -74.53460 | 27826 ft | 272 kts | 285° |
| 2026-05-08 21:54 | 47.36202 | -74.56147 | 27819 ft | 272 kts | 285° |
| 2026-05-08 21:54 | 47.36724 | -74.58822 | 27828 ft | 272 kts | 285° |
| 2026-05-08 21:54 | 47.37247 | -74.61501 | 27832 ft | 271 kts | 285° |
| 2026-05-08 21:55 | 47.37768 | -74.64180 | 27831 ft | 271 kts | 285° |
| 2026-05-08 21:55 | 47.38288 | -74.66856 | 27828 ft | 271 kts | 285° |
| 2026-05-08 21:55 | 47.38807 | -74.69528 | 27828 ft | 271 kts | 285° |
| 2026-05-08 21:56 | 47.39845 | -74.74878 | 27829 ft | 271 kts | 285° |
| 2026-05-08 21:56 | 47.40354 | -74.77512 | 27829 ft | 271 kts | 285° |
| 2026-05-08 21:56 | 47.40877 | -74.80221 | 27829 ft | 271 kts | 285° |
| 2026-05-08 21:56 | 47.41384 | -74.82855 | 27829 ft | 270 kts | 285° |
| 2026-05-08 21:57 | 47.41905 | -74.85560 | 27838 ft | 270 kts | 285° |
| 2026-05-08 21:57 | 47.42414 | -74.88198 | 27835 ft | 270 kts | 285° |
| 2026-05-08 21:57 | 47.42931 | -74.90895 | 27831 ft | 270 kts | 285° |
| 2026-05-08 21:57 | 47.43435 | -74.93528 | 27835 ft | 270 kts | 285° |
| 2026-05-08 21:58 | 47.43946 | -74.96198 | 27827 ft | 269 kts | 285° |
| 2026-05-08 21:58 | 47.44454 | -74.98857 | 27831 ft | 269 kts | 285° |
| 2026-05-08 21:58 | 47.44961 | -75.01515 | 27828 ft | 269 kts | 285° |
| 2026-05-08 21:58 | 47.45469 | -75.04174 | 27830 ft | 269 kts | 285° |
| 2026-05-08 21:59 | 47.45982 | -75.06831 | 27847 ft | 269 kts | 285° |
| 2026-05-08 21:59 | 47.46493 | -75.09492 | 27831 ft | 269 kts | 285° |
| 2026-05-08 21:59 | 47.46994 | -75.12155 | 27841 ft | 269 kts | 284° |
| 2026-05-08 21:59 | 47.47495 | -75.14826 | 27832 ft | 270 kts | 285° |
| 2026-05-08 22:00 | 47.48000 | -75.17495 | 27826 ft | 269 kts | 285° |
| 2026-05-08 22:00 | 47.48505 | -75.20157 | 27841 ft | 270 kts | 285° |
| 2026-05-08 22:00 | 47.49012 | -75.22829 | 27831 ft | 270 kts | 285° |
| 2026-05-08 22:00 | 47.49516 | -75.25502 | 27831 ft | 270 kts | 285° |
| 2026-05-08 22:01 | 47.49857 | -75.27270 | 27838 ft | 270 kts | 286° |
| 2026-05-08 22:01 | 47.50364 | -75.29940 | 27831 ft | 270 kts | 285° |
| 2026-05-08 22:01 | 47.50865 | -75.32620 | 27829 ft | 270 kts | 285° |
| 2026-05-08 22:01 | 47.51367 | -75.35296 | 27828 ft | 270 kts | 285° |
| 2026-05-08 22:02 | 47.51865 | -75.37973 | 27828 ft | 270 kts | 285° |
| 2026-05-08 22:02 | 47.52361 | -75.40651 | 27825 ft | 270 kts | 285° |
| 2026-05-08 22:02 | 47.52859 | -75.43330 | 27828 ft | 270 kts | 285° |
| 2026-05-08 22:02 | 47.53356 | -75.46006 | 27829 ft | 270 kts | 285° |
| 2026-05-08 22:03 | 47.53852 | -75.48678 | 27831 ft | 270 kts | 285° |
| 2026-05-08 22:03 | 47.54351 | -75.51356 | 27828 ft | 270 kts | 285° |
| 2026-05-08 22:03 | 47.54849 | -75.54034 | 27827 ft | 270 kts | 285° |
| 2026-05-08 22:03 | 47.55344 | -75.56710 | 27831 ft | 270 kts | 285° |
| 2026-05-08 22:04 | 47.55841 | -75.59388 | 27830 ft | 270 kts | 285° |
| 2026-05-08 22:04 | 47.56334 | -75.62060 | 27827 ft | 270 kts | 285° |
| 2026-05-08 22:04 | 47.56827 | -75.64739 | 27825 ft | 270 kts | 286° |
| 2026-05-08 22:04 | 47.57327 | -75.67416 | 27823 ft | 269 kts | 286° |
| 2026-05-08 22:05 | 47.57818 | -75.70090 | 27822 ft | 269 kts | 286° |
| 2026-05-08 22:05 | 47.58307 | -75.72764 | 27823 ft | 269 kts | 285° |
| 2026-05-08 22:05 | 47.58796 | -75.75435 | 27822 ft | 269 kts | 285° |
| 2026-05-08 22:05 | 47.59284 | -75.78105 | 27822 ft | 269 kts | 286° |
| 2026-05-08 22:06 | 47.59772 | -75.80772 | 27821 ft | 268 kts | 285° |
| 2026-05-08 22:06 | 47.60258 | -75.83439 | 27825 ft | 268 kts | 285° |
| 2026-05-08 22:06 | 47.60747 | -75.86112 | 27821 ft | 268 kts | 285° |
| 2026-05-08 22:06 | 47.61233 | -75.88779 | 27755 ft | 270 kts | 285° |
| 2026-05-08 22:07 | 47.61732 | -75.91527 | 27346 ft | 280 kts | 285° |
| 2026-05-08 22:07 | 47.62241 | -75.94325 | 26944 ft | 282 kts | 285° |
| 2026-05-08 22:07 | 47.62750 | -75.97136 | 26545 ft | 283 kts | 285° |
| 2026-05-08 22:07 | 47.63260 | -75.99956 | 26155 ft | 284 kts | 285° |
| 2026-05-08 22:08 | 47.63772 | -76.02792 | 25770 ft | 285 kts | 285° |
| 2026-05-08 22:08 | 47.64285 | -76.05620 | 25392 ft | 283 kts | 285° |
| 2026-05-08 22:08 | 47.64796 | -76.08449 | 25019 ft | 285 kts | 285° |
| 2026-05-08 22:08 | 47.65309 | -76.11290 | 24647 ft | 286 kts | 285° |
| 2026-05-08 22:09 | 47.65824 | -76.14145 | 24272 ft | 287 kts | 285° |
| 2026-05-08 22:09 | 47.66332 | -76.16967 | 23922 ft | 288 kts | 285° |
| 2026-05-08 22:09 | 47.66848 | -76.19844 | 23567 ft | 289 kts | 285° |
| 2026-05-08 22:09 | 47.67364 | -76.22730 | 23171 ft | 290 kts | 285° |
| 2026-05-08 22:10 | 47.67881 | -76.25629 | 22746 ft | 291 kts | 285° |
| 2026-05-08 22:10 | 47.68401 | -76.28542 | 22328 ft | 293 kts | 284° |
| 2026-05-08 22:10 | 47.68920 | -76.31468 | 21918 ft | 294 kts | 284° |
| 2026-05-08 22:10 | 47.69440 | -76.34409 | 21511 ft | 295 kts | 284° |
| 2026-05-08 22:11 | 47.69959 | -76.37360 | 21105 ft | 296 kts | 284° |
| 2026-05-08 22:11 | 47.70481 | -76.40332 | 20683 ft | 298 kts | 284° |
| 2026-05-08 22:11 | 47.71004 | -76.43310 | 20266 ft | 299 kts | 284° |
| 2026-05-08 22:11 | 47.71554 | -76.46284 | 19866 ft | 299 kts | 285° |
| 2026-05-08 22:12 | 47.72118 | -76.49265 | 19456 ft | 301 kts | 285° |
| 2026-05-08 22:12 | 47.72668 | -76.52269 | 19058 ft | 302 kts | 284° |
| 2026-05-08 22:12 | 47.73176 | -76.55292 | 18675 ft | 303 kts | 283° |
| 2026-05-08 22:12 | 47.73680 | -76.58337 | 18279 ft | 304 kts | 283° |
| 2026-05-08 22:13 | 47.74200 | -76.61379 | 17860 ft | 304 kts | 283° |
| 2026-05-08 22:13 | 47.74730 | -76.64411 | 17415 ft | 301 kts | 283° |
| 2026-05-08 22:13 | 47.75264 | -76.67404 | 16967 ft | 298 kts | 283° |
| 2026-05-08 22:13 | 47.75785 | -76.70366 | 16540 ft | 295 kts | 283° |
| 2026-05-08 22:14 | 47.76295 | -76.73307 | 16112 ft | 293 kts | 283° |
| 2026-05-08 22:14 | 47.76799 | -76.76227 | 15692 ft | 291 kts | 283° |
| 2026-05-08 22:14 | 47.77299 | -76.79125 | 15277 ft | 288 kts | 283° |
| 2026-05-08 22:14 | 47.77798 | -76.81982 | 14878 ft | 283 kts | 283° |
| 2026-05-08 22:15 | 47.78287 | -76.84810 | 14492 ft | 282 kts | 282° |
| 2026-05-08 22:15 | 47.78759 | -76.87647 | 14126 ft | 283 kts | 282° |
| 2026-05-08 22:15 | 47.79233 | -76.90446 | 13762 ft | 283 kts | 282° |
| 2026-05-08 22:15 | 47.79726 | -76.93309 | 13359 ft | 282 kts | 282° |
| 2026-05-08 22:16 | 47.80207 | -76.96096 | 12954 ft | 281 kts | 282° |
| 2026-05-08 22:16 | 47.80692 | -76.98909 | 12544 ft | 280 kts | 282° |
| 2026-05-08 22:16 | 47.81173 | -77.01709 | 12141 ft | 279 kts | 282° |
| 2026-05-08 22:16 | 47.81654 | -77.04531 | 11741 ft | 277 kts | 282° |
| 2026-05-08 22:17 | 47.82120 | -77.07266 | 11362 ft | 276 kts | 281° |
| 2026-05-08 22:17 | 47.82589 | -77.10019 | 10969 ft | 274 kts | 281° |
| 2026-05-08 22:17 | 47.83057 | -77.12765 | 10580 ft | 273 kts | 281° |
| 2026-05-08 22:17 | 47.83521 | -77.15494 | 10202 ft | 271 kts | 281° |
| 2026-05-08 22:18 | 47.83982 | -77.18211 | 9825 ft | 270 kts | 281° |
| 2026-05-08 22:18 | 47.84440 | -77.20914 | 9422 ft | 269 kts | 281° |
| 2026-05-08 22:18 | 47.84892 | -77.23605 | 9019 ft | 267 kts | 281° |
| 2026-05-08 22:18 | 47.85345 | -77.26278 | 8617 ft | 265 kts | 281° |
| 2026-05-08 22:19 | 47.85792 | -77.28931 | 8222 ft | 264 kts | 281° |
| 2026-05-08 22:19 | 47.86235 | -77.31579 | 7822 ft | 263 kts | 281° |
| 2026-05-08 22:19 | 47.86677 | -77.34218 | 7423 ft | 263 kts | 281° |
| 2026-05-08 22:19 | 47.87119 | -77.36842 | 7030 ft | 260 kts | 281° |
| 2026-05-08 22:20 | 47.87555 | -77.39455 | 6642 ft | 260 kts | 281° |
| 2026-05-08 22:20 | 47.87989 | -77.42065 | 6268 ft | 259 kts | 281° |
| 2026-05-08 22:20 | 47.88425 | -77.44663 | 5875 ft | 258 kts | 281° |
| 2026-05-08 22:20 | 47.88855 | -77.47241 | 5474 ft | 256 kts | 281° |
| 2026-05-08 22:21 | 47.89282 | -77.49807 | 5069 ft | 254 kts | 281° |
| 2026-05-08 22:21 | 47.89705 | -77.52361 | 4671 ft | 253 kts | 281° |
| 2026-05-08 22:21 | 47.90085 | -77.54914 | 4277 ft | 250 kts | 275° |
| 2026-05-08 22:21 | 47.89912 | -77.57398 | 3870 ft | 238 kts | 255° |
| 2026-05-08 22:22 | 47.89550 | -77.59775 | 3569 ft | 232 kts | 258° |
| 2026-05-08 22:22 | 47.89267 | -77.62073 | 3552 ft | 220 kts | 259° |
| 2026-05-08 22:22 | 47.88992 | -77.64284 | 3531 ft | 215 kts | 258° |
| 2026-05-08 22:22 | 47.88744 | -77.66330 | 3530 ft | 171 kts | 260° |
| 2026-05-08 22:23 | 47.88568 | -77.67910 | 3506 ft | 145 kts | 258° |
| 2026-05-08 22:23 | 47.88344 | -77.69404 | 3506 ft | 157 kts | 255° |
| 2026-05-08 22:23 | 47.88196 | -77.71093 | 3503 ft | 175 kts | 272° |
| 2026-05-08 22:23 | 47.88647 | -77.72573 | 3513 ft | 140 kts | 307° |
| 2026-05-08 22:24 | 47.89431 | -77.73556 | 3512 ft | 164 kts | 318° |
| 2026-05-08 22:24 | 47.90615 | -77.74183 | 3525 ft | 197 kts | 346° |
| 2026-05-08 22:24 | 47.92032 | -77.74471 | 3537 ft | 212 kts | 346° |
| 2026-05-08 22:24 | 47.93524 | -77.74851 | 3355 ft | 221 kts | 345° |
| 2026-05-08 22:25 | 47.94907 | -77.75204 | 3062 ft | 178 kts | 345° |
| 2026-05-08 22:25 | 47.96010 | -77.75533 | 2818 ft | 148 kts | 339° |
| 2026-05-08 22:25 | 47.96964 | -77.75883 | 2608 ft | 137 kts | 341° |
| 2026-05-08 22:25 | 47.97921 | -77.76168 | 2314 ft | 161 kts | 345° |
| 2026-05-08 22:26 | 47.99237 | -77.76533 | 1538 ft | 221 kts | 343° |
| 2026-05-08 22:26 | 48.00682 | -77.76983 | 1276 ft | 183 kts | 347° |
| 2026-05-08 22:26 | 48.01722 | -77.77227 | 1439 ft | 128 kts | 347° |
| 2026-05-08 22:26 | 48.02652 | -77.77472 | 1373 ft | 141 kts | 343° |
| 2026-05-08 22:27 | 48.03540 | -77.77749 | 1267 ft | 118 kts | 344° |
| 2026-05-08 22:27 | 48.04290 | -77.77967 | 1111 ft | 101 kts | 341° |
| 2026-05-08 22:27 | 48.04895 | -77.78129 | 1110 ft | 80 kts | 343° |
| 2026-05-08 22:27 | 48.05317 | -77.78305 | 1100 ft | 40 kts | 289° |
| 2026-05-08 22:28 | 48.05301 | -77.78494 | 1103 ft | 5 kts | 260° |
| 2026-05-08 22:28 | 48.05290 | -77.78563 | 1104 ft | 9 kts | 226° |
| 2026-05-08 22:28 | 48.05217 | -77.78580 | 1105 ft | 11 kts | 125° |
| 2026-05-08 22:28 | 48.05233 | -77.78557 | 1104 ft | 0 kts | 353° |